UTAVUTSS

Guest
Details From UTAV - TURKMENABAT
To UTSS - SAMARKAND
Flight Number -
Tags generated
Created
Modified
Stats Distance 161 nm / 298 km
Max Altitude 17,400 ft / 5,304 m
Waypoints 3
Social Downloads 0
Likes 0
Share VATSIM

Download

Looking for another format? Having issues loading an existing format? Contact us
Advertisement - Login to hide

Notes

Basic altitude profile: - Ascent Rate: 2500ft/min - Ascent Speed: 250kts - Cruise Altitude: 35000ft - Cruise Speed: 420kts - Descent Rate: 1500ft/min - Descent Speed: 250kts Options: - Use NATs: yes - Use PACOTS: yes - Use low airways: yes - Use high airways: yes

Route

UTAV TUDLI UTSS

ID Type Via Altitude Latitude Longitude Leg Dist Tot Dist Heading (true) Name
O UTAV APT - 0 ft / 0 m 39.08333˚ 63.61333˚ - 0 nm - TURKMENABAT
TUDLI FIX - 17,400 ft / 5,304 m 39.31000˚ 65.19500˚ 74 nm 74 nm 79° / 80° -
O UTSS APT - 0 ft / 0 m 39.70055˚ 66.98383˚ 86 nm 161 nm 74° / 75° SAMARKAND

Altitude Profile

Advertisement - Login to hide

UTAV

Details ICAO UTAV
Name TURKMENABAT
Region Tajikistan, Turkmenistan and Uzbekistan
Timezone Asia/Ashgabat (UTC+5.0)
Stats Elevation 630 ft / 192 m (AMSL)
Location 39.083333° 63.613334°
Runways 1
Magnetic Variation 5.048° E

METAR

UTAV 161100Z 04008KT CAVOK 07/M01 Q1028 NOSIG

Decode

TAF

TAF UTAV 152230Z 1600/1624 36012KT 2000 BR BKN008 530001 TEMPO 1600/1606 06014KT 0400 FZFG FZDZ VV002 BECMG 1606/1607 10014KT 5000 SCT030

Decode

Departure Runways

ID Width Length Bearing (true) Bearing (mag) Surface Threshold Offset Overrun Length
15 138 ft / 42 m 8,945 ft / 2,727 m 155.02° 149.97° Asphalt 0 ft / 0 m 0 ft / 0 m
33 138 ft / 42 m 8,945 ft / 2,727 m 335.03° 329.98° Asphalt 0 ft / 0 m 0 ft / 0 m

UTSS

Details ICAO UTSS (SKD)
Name SAMARKAND
Region Tajikistan, Turkmenistan and Uzbekistan
Timezone Asia/Samarkand (UTC+5.0)
Stats Elevation 2,224 ft / 678 m (AMSL)
Location 39.700547° 66.983829°
Runways 1
Magnetic Variation 5.018° E

METAR

UTSS 161100Z 04002KT 9999 NSC 08/M09 Q1027 R09/70D NOSIG

Decode

TAF

TAF UTSS 160500Z 1606/1706 30010KT 7000 NSC BECMG 1612/1614 12010KT 5000 BR

Decode

Destination Runways

ID Width Length Bearing (true) Bearing (mag) Surface Threshold Offset Overrun Length
09 161 ft / 49 m 10,189 ft / 3,106 m 95.70° 90.68° Asphalt 0 ft / 0 m 200 ft / 61 m
27 161 ft / 49 m 10,189 ft / 3,106 m 275.72° 270.70° Asphalt 0 ft / 0 m 200 ft / 61 m

Approach Navaids

Runway Type Ident Frequency Range Bearing (true) Bearing (mag) Slope Elevation
09 Localiser IMZ 109.50 MHz 18 nm / 33 km 95.86° 90.84° - 2,224 ft / 678 m (AMSL)
09 Glidescope IMZ 109.50 MHz 10 nm / 19 km 95.71° 90.69° 3.00° 2,224 ft / 678 m (AMSL)